Time;durP1;ratioP1;P1;durP2;ratioP2;P2;SDS_P1;SDS_P2;PMS_P1;PMS_P2;Temp;Humidity;BMP_temperature;BMP_pressure;BME280_temperature;BME280_humidity;BME280_pressure;Samples;Min_cycle;Max_cycle;Signal;HPM_P1;HPM_P2
2022/12/31 00:00:37;;;;;;;3.85;1.80;;;;;;;-143.48;100.00;118439.88;5054171;28;20017;-67
2022/12/31 00:03:06;;;;;;;8.02;1.90;;;;;;;-143.48;100.00;118439.88;5054135;28;20428;-67
2022/12/31 00:05:32;;;;;;;3.97;1.75;;;;;;;-143.48;100.00;118439.88;5054336;28;20021;-67
2022/12/31 00:07:57;;;;;;;5.40;2.13;;;;;;;-143.48;100.00;118439.88;5053963;28;20032;-67
2022/12/31 00:10:23;;;;;;;6.78;2.60;;;;;;;-143.48;100.00;118439.88;5053749;28;20071;-67
2022/12/31 00:12:49;;;;;;;5.75;2.25;;;;;;;-143.48;100.00;118439.88;5053791;28;20021;-68
2022/12/31 00:15:14;;;;;;;5.10;2.47;;;;;;;-143.48;100.00;118439.88;5055840;28;20541;-69
2022/12/31 00:17:39;;;;;;;5.10;2.40;;;;;;;-143.48;100.00;118439.88;5053906;28;20029;-66
2022/12/31 00:20:05;;;;;;;5.28;2.30;;;;;;;-143.48;100.00;118439.88;5053405;28;20388;-68
2022/12/31 00:22:30;;;;;;;5.55;2.60;;;;;;;-143.48;100.00;118439.88;5052368;28;20059;-68
2022/12/31 00:24:56;;;;;;;7.57;2.40;;;;;;;-143.48;100.00;118439.88;5053560;28;20021;-68
2022/12/31 00:27:21;;;;;;;5.20;2.40;;;;;;;-143.48;100.00;118439.88;5053491;28;20029;-68
2022/12/31 00:29:47;;;;;;;5.47;2.15;;;;;;;-143.48;100.00;118439.88;5053533;28;20025;-67
2022/12/31 00:32:12;;;;;;;2.75;1.90;;;;;;;-143.48;100.00;118439.88;5035606;28;20017;-68
2022/12/31 00:34:37;;;;;;;6.32;1.80;;;;;;;-143.48;100.00;118439.88;5053594;28;20078;-68
2022/12/31 00:37:03;;;;;;;4.97;2.20;;;;;;;-143.48;100.00;118439.88;5053462;28;20060;-68
2022/12/31 00:39:28;;;;;;;5.35;2.10;;;;;;;-143.48;100.00;118439.88;5053360;28;20035;-68
2022/12/31 00:41:53;;;;;;;4.03;2.00;;;;;;;-143.48;100.00;118439.88;5053410;28;20033;-66
2022/12/31 00:44:19;;;;;;;4.57;2.40;;;;;;;-143.48;100.00;118439.88;5053360;28;20029;-67
2022/12/31 00:46:44;;;;;;;7.10;2.55;;;;;;;-143.48;100.00;118439.88;5053395;28;20025;-68
2022/12/31 00:49:13;;;;;;;8.93;2.40;;;;;;;-143.48;100.00;118439.88;5053274;28;20120;-68
2022/12/31 00:51:38;;;;;;;4.32;2.33;;;;;;;-143.48;100.00;118439.88;5053163;28;20036;-68
2022/12/31 00:54:04;;;;;;;7.55;2.72;;;;;;;-143.48;100.00;118439.88;5053281;28;20033;-68
2022/12/31 00:56:30;;;;;;;10.13;3.08;;;;;;;-143.48;100.00;118439.88;5035405;28;20460;-69
2022/12/31 00:58:56;;;;;;;6.50;2.63;;;;;;;-143.48;100.00;118439.88;5053093;28;20036;-66
2022/12/31 01:01:22;;;;;;;5.93;2.63;;;;;;;-143.48;100.00;118439.88;5053123;28;20025;-68
2022/12/31 01:03:50;;;;;;;5.00;2.22;;;;;;;-143.48;100.00;118439.88;5035249;28;20407;-68
2022/12/31 01:06:16;;;;;;;4.47;2.50;;;;;;;-143.48;100.00;118439.88;5053184;28;20464;-66
2022/12/31 01:08:42;;;;;;;7.45;2.50;;;;;;;-143.48;100.00;118439.88;5035167;28;20047;-65
2022/12/31 01:11:22;;;;;;;7.82;2.42;;;;;;;-143.48;100.00;118439.88;5052981;28;20036;-66
2022/12/31 01:13:53;;;;;;;5.90;2.17;;;;;;;-143.48;100.00;118439.88;5052945;28;20021;-66
2022/12/31 01:16:28;;;;;;;6.55;2.30;;;;;;;-143.48;100.00;118439.88;5052919;28;20029;-66
2022/12/31 01:18:54;;;;;;;5.35;2.15;;;;;;;-143.48;100.00;118439.88;5053150;28;20024;-66
2022/12/31 01:21:20;;;;;;;8.40;2.17;;;;;;;-143.48;100.00;118439.88;5052918;28;20021;-66
2022/12/31 01:23:45;;;;;;;5.38;1.88;;;;;;;-143.48;100.00;118439.88;5052829;28;20071;-67
2022/12/31 01:26:14;;;;;;;8.50;2.47;;;;;;;-143.48;100.00;118439.88;5052951;28;20033;-67
2022/12/31 01:28:39;;;;;;;7.35;2.30;;;;;;;-143.48;100.00;118439.88;5052657;28;20041;-67
2022/12/31 01:31:07;;;;;;;4.95;1.92;;;;;;;-143.48;100.00;118439.88;5054200;28;20024;-70
2022/12/31 01:33:34;;;;;;;11.00;1.83;;;;;;;-143.48;100.00;118439.88;5046187;28;20071;-67
2022/12/31 01:36:09;;;;;;;6.25;1.50;;;;;;;-143.48;100.00;118439.88;5056853;28;20449;-67
2022/12/31 01:38:35;;;;;;;6.55;1.65;;;;;;;-143.48;100.00;118439.88;5056911;28;20052;-67
2022/12/31 01:41:01;;;;;;;6.22;1.75;;;;;;;-143.48;100.00;118439.88;5057087;28;20021;-67
2022/12/31 01:43:49;;;;;;;9.07;1.60;;;;;;;-143.48;100.00;118439.88;5056634;28;20090;-68
2022/12/31 01:46:30;;;;;;;8.13;1.80;;;;;;;-143.48;100.00;118439.88;5056706;28;20025;-67
2022/12/31 01:48:58;;;;;;;9.70;1.67;;;;;;;-143.48;100.00;118439.88;5056557;28;20029;-67
2022/12/31 01:51:29;;;;;;;7.43;1.70;;;;;;;-143.48;100.00;118439.88;5056636;28;20049;-67
2022/12/31 01:53:54;;;;;;;9.50;1.70;;;;;;;-143.48;100.00;118439.88;5056478;28;20029;-68
2022/12/31 01:56:22;;;;;;;10.20;1.65;;;;;;;-143.48;100.00;118439.88;5038580;28;20070;-67
2022/12/31 01:58:50;;;;;;;5.20;1.80;;;;;;;-143.48;100.00;118439.88;5056392;28;20029;-68
2022/12/31 02:01:23;;;;;;;6.35;1.40;;;;;;;-143.48;100.00;118439.88;5056358;28;20025;-67
2022/12/31 02:03:49;;;;;;;8.52;1.80;;;;;;;-143.48;100.00;118439.88;5056378;28;20033;-68
2022/12/31 02:06:50;;;;;;;7.40;1.80;;;;;;;-143.48;100.00;118439.88;5056309;28;20124;-67
2022/12/31 02:09:15;;;;;;;9.88;1.75;;;;;;;-143.48;100.00;118439.88;5036375;28;20404;-67
2022/12/31 02:11:40;;;;;;;6.43;1.48;;;;;;;-143.48;100.00;118439.88;5056347;28;20032;-68
2022/12/31 02:14:14;;;;;;;7.80;1.65;;;;;;;-143.48;100.00;118439.88;5056180;28;20078;-67
2022/12/31 02:16:53;;;;;;;10.50;1.88;;;;;;;-143.48;100.00;118439.88;5056096;28;20032;-67
2022/12/31 02:19:36;;;;;;;7.22;2.03;;;;;;;-143.48;100.00;118439.88;5056212;28;20383;-67
2022/12/31 02:22:08;;;;;;;8.30;1.92;;;;;;;-143.48;100.00;118439.88;5055931;28;20027;-67
2022/12/31 02:24:48;;;;;;;8.85;1.80;;;;;;;-143.48;100.00;118439.88;5056125;28;20029;-67
2022/12/31 02:27:22;;;;;;;2.40;1.10;;;;;;;-143.48;100.00;118439.88;5055752;28;20099;-67
2022/12/31 02:30:20;;;;;;;10.75;1.92;;;;;;;-143.48;100.00;118439.88;5055834;28;20403;-67
2022/12/31 02:33:07;;;;;;;12.65;1.80;;;;;;;-143.48;100.00;118439.88;5055734;28;20075;-67
2022/12/31 02:35:44;;;;;;;8.25;2.08;;;;;;;-143.48;100.00;118439.88;5055740;28;20047;-67
2022/12/31 02:38:32;;;;;;;7.80;1.92;;;;;;;-143.48;100.00;118439.88;5055750;28;20021;-67
2022/12/31 02:40:58;;;;;;;7.45;1.85;;;;;;;-143.48;100.00;118439.88;5055192;28;20036;-66
2022/12/31 02:43:25;;;;;;;8.90;2.05;;;;;;;-143.48;100.00;118439.88;5055289;28;20055;-67
2022/12/31 02:46:05;;;;;;;8.40;2.70;;;;;;;-143.48;100.00;118439.88;5054986;28;20082;-67
2022/12/31 02:48:38;;;;;;;7.10;2.20;;;;;;;-143.48;100.00;118439.88;5055507;28;20048;-66
2022/12/31 02:51:14;;;;;;;10.57;2.63;;;;;;;-143.48;100.00;118439.88;5055472;28;20033;-67
2022/12/31 02:54:08;;;;;;;5.88;2.30;;;;;;;-143.48;100.00;118439.88;5035962;28;20112;-67
2022/12/31 02:57:16;;;;;;;7.75;2.28;;;;;;;-143.48;100.00;118439.88;5037427;28;20369;-67
2022/12/31 03:02:40;;;;;;;5.20;1.90;;;;;;;-143.48;100.00;118439.88;5055124;28;20036;-67
2022/12/31 03:05:08;;;;;;;5.53;1.80;;;;;;;-143.48;100.00;118439.88;5055225;28;20033;-67
2022/12/31 03:07:33;;;;;;;5.95;1.80;;;;;;;-143.48;100.00;118439.88;5055272;28;20025;-67
2022/12/31 03:10:02;;;;;;;8.30;1.70;;;;;;;-143.48;100.00;118439.88;5055120;28;20032;-67
2022/12/31 03:12:46;;;;;;;2.20;1.25;;;;;;;-143.48;100.00;118439.88;5054976;28;20048;-67
2022/12/31 03:15:24;;;;;;;6.10;1.50;;;;;;;-143.48;100.00;118439.88;5055173;28;20431;-67
2022/12/31 03:18:08;;;;;;;5.00;1.35;;;;;;;-143.48;100.00;118439.88;5054947;28;20025;-67
2022/12/31 03:23:26;;;;;;;4.30;1.30;;;;;;;-143.48;100.00;118439.88;5055238;28;20503;-67
2022/12/31 03:25:52;;;;;;;6.15;1.60;;;;;;;-143.48;100.00;118439.88;5055002;28;20027;-67
2022/12/31 03:28:20;;;;;;;5.88;1.50;;;;;;;-143.48;100.00;118439.88;5054648;28;20086;-67
2022/12/31 03:30:49;;;;;;;7.22;1.88;;;;;;;-143.48;100.00;118439.88;5036957;28;20025;-68
2022/12/31 03:33:14;;;;;;;14.85;2.05;;;;;;;-143.48;100.00;118439.88;5036722;28;20442;-68
2022/12/31 03:35:42;;;;;;;5.75;1.70;;;;;;;-143.48;100.00;118439.88;5054771;28;20025;-68
2022/12/31 03:38:07;;;;;;;5.93;1.80;;;;;;;-143.48;100.00;118439.88;5054639;28;20108;-68
2022/12/31 03:40:38;;;;;;;6.57;1.70;;;;;;;-143.48;100.00;118439.88;5054614;28;20059;-68
2022/12/31 03:43:03;;;;;;;6.65;1.95;;;;;;;-143.48;100.00;118439.88;5054508;28;20512;-68
2022/12/31 03:45:29;;;;;;;6.38;1.90;;;;;;;-143.48;100.00;118439.88;5054540;28;20071;-68
2022/12/31 03:47:54;;;;;;;7.80;2.65;;;;;;;-143.48;100.00;118439.88;5054412;28;20365;-68
2022/12/31 03:50:20;;;;;;;5.75;2.25;;;;;;;-143.48;100.00;118439.88;5054234;28;20071;-67
2022/12/31 03:52:45;;;;;;;6.50;2.03;;;;;;;-143.48;100.00;118439.88;5054382;28;20032;-68
2022/12/31 03:55:11;;;;;;;9.23;2.38;;;;;;;-143.48;100.00;118439.88;5053839;28;20021;-67
2022/12/31 03:57:37;;;;;;;6.47;2.03;;;;;;;-143.48;100.00;118439.88;5053668;28;20025;-67
2022/12/31 04:00:05;;;;;;;9.85;2.13;;;;;;;-143.48;100.00;118439.88;5054218;28;20484;-67
2022/12/31 04:02:30;;;;;;;6.50;2.00;;;;;;;-143.48;100.00;118439.88;5053984;28;20021;-67
2022/12/31 04:04:55;;;;;;;6.45;2.20;;;;;;;-143.48;100.00;118439.88;5053990;28;20362;-68
2022/12/31 04:07:20;;;;;;;5.93;2.03;;;;;;;-143.48;100.00;118439.88;5054131;28;20019;-67
2022/12/31 04:09:46;;;;;;;7.18;2.20;;;;;;;-143.48;100.00;118439.88;5054108;28;20021;-67
2022/12/31 04:12:11;;;;;;;4.15;1.80;;;;;;;-143.48;100.00;118439.88;5053890;28;20035;-68
2022/12/31 04:14:36;;;;;;;7.35;1.90;;;;;;;-143.48;100.00;118439.88;5054003;28;20029;-68
2022/12/31 04:17:02;;;;;;;4.15;1.42;;;;;;;-143.48;100.00;118439.88;5053729;28;20104;-67
2022/12/31 04:19:27;;;;;;;6.18;1.77;;;;;;;-143.48;100.00;118439.88;5053940;28;20029;-68
2022/12/31 04:21:52;;;;;;;3.88;1.52;;;;;;;-143.48;100.00;118439.88;5053903;28;20020;-68
2022/12/31 04:24:21;;;;;;;4.03;1.27;;;;;;;-143.48;100.00;118439.88;5053712;28;20055;-67
2022/12/31 04:26:46;;;;;;;6.45;1.45;;;;;;;-143.48;100.00;118439.88;5053505;28;20048;-68
2022/12/31 04:29:11;;;;;;;7.57;1.90;;;;;;;-143.48;100.00;118439.88;5053684;28;20017;-68
2022/12/31 04:31:37;;;;;;;4.13;1.52;;;;;;;-143.48;100.00;118439.88;5053497;28;20032;-67
2022/12/31 04:34:02;;;;;;;4.95;1.75;;;;;;;-143.48;100.00;118439.88;5053542;28;20021;-68
2022/12/31 04:36:27;;;;;;;6.10;1.67;;;;;;;-143.48;100.00;118439.88;5053424;28;20021;-67
2022/12/31 04:38:53;;;;;;;4.53;1.40;;;;;;;-143.48;100.00;118439.88;5053421;28;20029;-67
2022/12/31 04:41:19;;;;;;;3.83;1.50;;;;;;;-143.48;100.00;118439.88;5053846;28;20032;-67
2022/12/31 04:43:53;;;;;;;9.35;1.73;;;;;;;-143.48;100.00;118439.88;5053409;28;20063;-68
2022/12/31 04:46:24;;;;;;;5.70;1.50;;;;;;;-143.48;100.00;118439.88;5035670;28;20028;-68
2022/12/31 04:48:50;;;;;;;4.97;1.40;;;;;;;-143.48;100.00;118439.88;5053375;28;20023;-67
2022/12/31 04:51:15;;;;;;;5.80;1.40;;;;;;;-143.48;100.00;118439.88;5053319;28;20399;-67
2022/12/31 04:53:41;;;;;;;5.78;1.50;;;;;;;-143.48;100.00;118439.88;5053358;28;20030;-67
2022/12/31 04:56:06;;;;;;;3.58;1.55;;;;;;;-143.48;100.00;118439.88;5053220;28;20033;-67
2022/12/31 04:58:32;;;;;;;4.30;1.60;;;;;;;-143.48;100.00;118439.88;5053135;28;20029;-67
2022/12/31 05:00:58;;;;;;;9.68;1.90;;;;;;;-143.48;100.00;118439.88;5053170;28;20060;-67
2022/12/31 05:03:24;;;;;;;4.60;2.10;;;;;;;-143.48;100.00;118439.88;5053149;28;20024;-67
2022/12/31 05:05:50;;;;;;;3.83;1.98;;;;;;;-143.48;100.00;118439.88;5053130;28;20025;-67
2022/12/31 05:08:17;;;;;;;5.45;2.30;;;;;;;-143.48;100.00;118439.88;5052828;28;20104;-67
2022/12/31 05:10:44;;;;;;;3.58;2.30;;;;;;;-143.48;100.00;118439.88;5053064;28;20031;-67
2022/12/31 05:13:10;;;;;;;3.70;2.10;;;;;;;-143.48;100.00;118439.88;5053041;28;20423;-67
2022/12/31 05:15:35;;;;;;;3.05;2.03;;;;;;;-143.48;100.00;118439.88;5053097;28;20052;-66
2022/12/31 05:18:01;;;;;;;6.97;2.28;;;;;;;-143.48;100.00;118439.88;5052827;28;20103;-67
2022/12/31 05:20:27;;;;;;;3.13;2.15;;;;;;;-143.48;100.00;118439.88;5053189;28;20108;-67
2022/12/31 05:22:52;;;;;;;7.32;2.72;;;;;;;-143.48;100.00;118439.88;5052904;28;20025;-67
2022/12/31 05:25:17;;;;;;;3.25;2.53;;;;;;;-143.48;100.00;118439.88;5052805;28;20044;-68
2022/12/31 05:27:43;;;;;;;3.88;2.33;;;;;;;-143.48;100.00;118439.88;5053094;28;20049;-67
2022/12/31 05:30:09;;;;;;;5.75;2.50;;;;;;;-143.48;100.00;118439.88;5052818;28;20032;-67
2022/12/31 05:32:34;;;;;;;3.25;2.50;;;;;;;-143.48;100.00;118439.88;5052987;28;20033;-67
2022/12/31 05:35:00;;;;;;;3.25;2.30;;;;;;;-143.48;100.00;118439.88;5052847;28;20150;-68
2022/12/31 05:37:27;;;;;;;5.28;2.63;;;;;;;-143.48;100.00;118439.88;5052689;28;20035;-67
2022/12/31 05:39:52;;;;;;;4.65;2.40;;;;;;;-143.48;100.00;118439.88;5052350;28;20082;-68
2022/12/31 05:42:18;;;;;;;2.78;2.47;;;;;;;-143.48;100.00;118439.88;5052337;28;20033;-67
2022/12/31 05:44:43;;;;;;;3.67;2.20;;;;;;;-143.48;100.00;118439.88;5051758;28;20079;-67
2022/12/31 05:47:08;;;;;;;4.05;2.65;;;;;;;-143.48;100.00;118439.88;5032764;28;20036;-67
2022/12/31 05:49:34;;;;;;;7.90;2.60;;;;;;;-143.48;100.00;118439.88;5050668;28;20108;-67
2022/12/31 05:51:59;;;;;;;4.45;2.83;;;;;;;-143.48;100.00;118439.88;5050848;28;20028;-67
2022/12/31 05:54:24;;;;;;;4.22;3.00;;;;;;;-143.48;100.00;118439.88;5050658;28;20065;-67
2022/12/31 05:56:50;;;;;;;4.80;2.70;;;;;;;-143.48;100.00;118439.88;5050570;28;20029;-67
2022/12/31 05:59:15;;;;;;;4.13;3.10;;;;;;;-143.48;100.00;118439.88;5050786;28;20478;-67
2022/12/31 06:01:40;;;;;;;5.45;3.20;;;;;;;-143.48;100.00;118439.88;5051735;28;20021;-68
2022/12/31 06:04:05;;;;;;;6.32;3.30;;;;;;;-143.48;100.00;118439.88;5052487;28;20116;-67
2022/12/31 06:06:31;;;;;;;6.43;3.45;;;;;;;-143.48;100.00;118439.88;5052628;28;20017;-66
2022/12/31 06:08:56;;;;;;;4.05;3.20;;;;;;;-143.48;100.00;118439.88;5053170;28;20032;-71
2022/12/31 06:11:22;;;;;;;5.75;3.90;;;;;;;-143.48;100.00;118439.88;5054299;28;20025;-67
2022/12/31 06:13:47;;;;;;;5.38;3.30;;;;;;;-143.48;100.00;118439.88;5052639;28;20441;-67
2022/12/31 06:16:12;;;;;;;5.70;3.63;;;;;;;-143.48;100.00;118439.88;5034681;28;20060;-67
2022/12/31 06:18:38;;;;;;;7.00;3.67;;;;;;;-143.48;100.00;118439.88;5052352;28;20116;-67
2022/12/31 06:21:03;;;;;;;5.95;3.28;;;;;;;-143.48;100.00;118439.88;5056037;28;20029;-67
2022/12/31 06:23:29;;;;;;;4.50;3.58;;;;;;;-143.48;100.00;118439.88;5037832;28;20380;-67
2022/12/31 06:25:55;;;;;;;4.30;3.25;;;;;;;-143.48;100.00;118439.88;5055936;28;20056;-67
2022/12/31 06:28:20;;;;;;;4.55;3.00;;;;;;;-143.48;100.00;118439.88;5055829;28;20041;-67
2022/12/31 06:30:46;;;;;;;4.90;2.80;;;;;;;-143.48;100.00;118439.88;5055959;28;20489;-67
2022/12/31 06:33:11;;;;;;;3.15;2.42;;;;;;;-143.48;100.00;118439.88;5055943;28;20028;-67
2022/12/31 06:35:36;;;;;;;2.70;2.28;;;;;;;-143.48;100.00;118439.88;5055833;28;20104;-67
2022/12/31 06:38:02;;;;;;;4.25;2.20;;;;;;;-143.48;100.00;118439.88;5055723;28;20029;-67
2022/12/31 06:40:27;;;;;;;2.75;1.95;;;;;;;-143.48;100.00;118439.88;5037760;28;20079;-67
2022/12/31 06:42:53;;;;;;;2.75;1.73;;;;;;;-143.48;100.00;118439.88;5055749;28;20112;-67
2022/12/31 06:45:18;;;;;;;1.77;1.50;;;;;;;-143.48;100.00;118439.88;5055859;28;20027;-68
2022/12/31 06:47:44;;;;;;;1.90;1.70;;;;;;;-143.48;100.00;118439.88;5055485;28;20092;-67
2022/12/31 06:50:09;;;;;;;2.72;2.00;;;;;;;-143.48;100.00;118439.88;5055431;28;20047;-67
2022/12/31 06:52:35;;;;;;;4.88;2.15;;;;;;;-143.48;100.00;118439.88;5055592;28;20033;-67
2022/12/31 06:55:00;;;;;;;3.08;1.95;;;;;;;-143.48;100.00;118439.88;5037553;28;20033;-67
2022/12/31 06:57:26;;;;;;;2.70;2.10;;;;;;;-143.48;100.00;118439.88;5055252;28;20024;-67
2022/12/31 06:59:52;;;;;;;3.97;2.58;;;;;;;-143.48;100.00;118439.88;5037468;28;20468;-67
2022/12/31 07:02:48;;;;;;;3.13;2.58;;;;;;;-143.48;100.00;118439.88;5056994;28;20033;-69
2022/12/31 07:05:31;;;;;;;4.30;2.60;;;;;;;-143.48;100.00;118439.88;5061608;28;20067;-68
2022/12/31 07:08:09;;;;;;;4.28;2.70;;;;;;;-143.48;100.00;118439.88;5055759;28;20084;-67
2022/12/31 07:10:49;;;;;;;3.38;2.40;;;;;;;-143.48;100.00;118439.88;5037302;28;20029;-67
2022/12/31 07:13:36;;;;;;;3.22;2.30;;;;;;;-143.48;100.00;118439.88;5055694;28;20039;-67
2022/12/31 07:16:20;;;;;;;3.15;2.22;;;;;;;-143.48;100.00;118439.88;5056715;28;20029;-69
2022/12/31 07:19:08;;;;;;;2.92;2.10;;;;;;;-143.48;100.00;118439.88;5054938;28;20029;-67
2022/12/31 07:21:36;;;;;;;3.60;2.13;;;;;;;-143.48;100.00;118439.88;5055088;28;20021;-67
2022/12/31 07:24:02;;;;;;;2.70;1.90;;;;;;;-143.48;100.00;118439.88;5055220;28;20376;-66
2022/12/31 07:26:53;;;;;;;3.28;1.48;;;;;;;-143.48;100.00;118439.88;5054830;28;20024;-66
2022/12/31 07:29:40;;;;;;;2.05;1.45;;;;;;;-143.48;100.00;118439.88;5054819;28;20055;-67
2022/12/31 07:32:17;;;;;;;3.67;1.60;;;;;;;-143.48;100.00;118439.88;5054837;28;20016;-67
2022/12/31 07:35:21;;;;;;;2.42;1.30;;;;;;;-143.48;100.00;118439.88;5036784;28;20032;-67
2022/12/31 07:38:04;;;;;;;1.50;1.00;;;;;;;-143.48;100.00;118439.88;5052234;28;20040;-68
2022/12/31 07:40:41;;;;;;;5.72;1.10;;;;;;;-143.48;100.00;118439.88;5056912;28;20021;-68
2022/12/31 07:43:16;;;;;;;2.97;0.90;;;;;;;-143.48;100.00;118439.88;5054514;28;20020;-67
2022/12/31 07:45:54;;;;;;;2.10;1.20;;;;;;;-143.48;100.00;118439.88;5036652;28;20028;-67
2022/12/31 07:48:23;;;;;;;2.85;1.00;;;;;;;-143.48;100.00;118439.88;5054365;28;20515;-67
2022/12/31 07:50:50;;;;;;;4.40;1.20;;;;;;;-143.48;100.00;118439.88;5054293;28;20029;-67
2022/12/31 07:53:15;;;;;;;3.25;0.88;;;;;;;-143.48;100.00;118439.88;5054324;28;20032;-67
2022/12/31 07:55:41;;;;;;;4.25;0.95;;;;;;;-143.48;100.00;118439.88;5054442;28;20075;-67
2022/12/31 07:58:24;;;;;;;2.00;1.02;;;;;;;-143.48;100.00;118439.88;5054125;28;20052;-67
2022/12/31 08:00:51;;;;;;;1.67;0.90;;;;;;;-143.48;100.00;118439.88;5054305;28;20021;-67
2022/12/31 08:03:38;;;;;;;3.65;0.80;;;;;;;-143.48;100.00;118439.88;5058803;28;20063;-70
2022/12/31 08:06:07;;;;;;;2.35;0.60;;;;;;;-143.48;100.00;118439.88;5040227;28;20029;-68
2022/12/31 08:08:42;;;;;;;2.80;0.70;;;;;;;-143.48;100.00;118439.88;5055810;28;20025;-67
2022/12/31 08:11:15;;;;;;;1.67;0.70;;;;;;;-143.48;100.00;118439.88;5053861;28;20025;-66
2022/12/31 08:13:41;;;;;;;1.75;0.57;;;;;;;-143.48;100.00;118439.88;5054109;28;20070;-66
2022/12/31 08:16:10;;;;;;;2.05;0.80;;;;;;;-143.48;100.00;118439.88;5053800;28;20029;-67
2022/12/31 08:18:35;;;;;;;2.72;1.02;;;;;;;-143.48;100.00;118439.88;5053658;28;20036;-66
2022/12/31 08:21:03;;;;;;;4.85;1.38;;;;;;;-143.48;100.00;118439.88;5053870;28;20179;-66
2022/12/31 08:23:58;;;;;;;2.10;0.63;;;;;;;-143.48;100.00;118439.88;5035811;28;20025;-67
2022/12/31 08:26:42;;;;;;;1.50;0.60;;;;;;;-143.48;100.00;118439.88;5036870;28;20032;-66
2022/12/31 08:29:37;;;;;;;2.72;0.68;;;;;;;-143.48;100.00;118439.88;5055410;28;20032;-67
2022/12/31 08:32:22;;;;;;;1.98;0.70;;;;;;;-143.48;100.00;118439.88;5056346;28;20052;-67
2022/12/31 08:35:06;;;;;;;0.80;0.50;;;;;;;-143.48;100.00;118439.88;5053618;28;20400;-67
2022/12/31 08:37:54;;;;;;;1.92;0.60;;;;;;;-143.48;100.00;118439.88;5035423;28;20025;-67
2022/12/31 08:40:25;;;;;;;1.65;0.73;;;;;;;-143.48;100.00;118439.88;5053240;28;20025;-67
2022/12/31 08:43:44;;;;;;;1.92;0.70;;;;;;;-143.48;100.00;118439.88;5052963;28;20025;-67
2022/12/31 08:46:28;;;;;;;2.80;0.60;;;;;;;-143.48;100.00;118439.88;4991821;28;20038;-67
2022/12/31 08:48:54;;;;;;;1.85;0.70;;;;;;;-143.48;100.00;118439.88;4991928;28;20030;-66
2022/12/31 08:51:22;;;;;;;1.77;0.70;;;;;;;-143.48;99.49;118439.88;5027724;28;20063;-66
2022/12/31 08:53:48;;;;;;;3.90;0.95;;;;;;;-143.48;99.83;118439.88;5053048;28;20028;-67
2022/12/31 08:56:31;;;;;;;3.53;0.63;;;;;;;-143.48;99.83;118439.88;5053164;28;20103;-66
2022/12/31 08:59:14;;;;;;;4.85;0.80;;;;;;;-143.48;99.07;118439.88;5052890;28;20025;-66
2022/12/31 09:01:48;;;;;;;2.10;0.52;;;;;;;-143.48;98.13;118439.88;5034911;28;20162;-66
2022/12/31 09:04:24;;;;;;;2.05;0.60;;;;;;;-143.48;97.65;118439.88;5035126;28;20504;-67
2022/12/31 09:07:00;;;;;;;3.55;0.70;;;;;;;-143.48;97.71;118439.88;5035045;28;20075;-67
2022/12/31 09:09:59;;;;;;;4.90;1.00;;;;;;;-143.48;98.37;118439.88;5052858;28;20025;-65
2022/12/31 09:12:44;;;;;;;2.17;0.70;;;;;;;-143.48;99.22;118439.88;5052928;28;20248;-66
2022/12/31 09:15:17;;;;;;;5.45;1.10;;;;;;;-143.48;99.88;118439.88;5052774;28;20025;-64
2022/12/31 09:17:42;;;;;;;5.40;1.10;;;;;;;-143.48;100.00;118439.88;5052704;28;20029;-65
2022/12/31 09:20:19;;;;;;;2.80;1.30;;;;;;;-143.48;100.00;118439.88;5052755;28;20079;-66
2022/12/31 09:22:45;;;;;;;4.20;1.40;;;;;;;-143.48;100.00;118439.88;5052917;28;20040;-66
2022/12/31 09:25:15;;;;;;;4.72;1.60;;;;;;;-143.48;100.00;118439.88;5053491;28;20365;-66
2022/12/31 09:28:12;;;;;;;5.15;1.95;;;;;;;-143.48;100.00;118439.88;5034691;28;20049;-66
2022/12/31 09:30:59;;;;;;;6.47;2.13;;;;;;;-143.48;100.00;118439.88;5026296;28;20045;-65
2022/12/31 09:33:41;;;;;;;4.07;1.65;;;;;;;-143.48;100.00;118439.88;5052702;28;20029;-65
2022/12/31 09:36:10;;;;;;;5.22;1.70;;;;;;;-143.48;100.00;118439.88;5052648;28;20431;-66
2022/12/31 09:38:51;;;;;;;6.07;1.65;;;;;;;-143.48;100.00;118439.88;5053303;28;20040;-64
2022/12/31 09:41:38;;;;;;;5.57;1.50;;;;;;;-143.48;100.00;118439.88;5051767;28;20077;-65
2022/12/31 09:44:35;;;;;;;8.70;1.33;;;;;;;-143.48;100.00;118439.88;5052559;28;20025;-64
2022/12/31 09:47:15;;;;;;;4.15;1.50;;;;;;;-143.48;100.00;118439.88;5052594;28;20020;-64
2022/12/31 09:50:02;;;;;;;5.53;1.45;;;;;;;-143.48;100.00;118439.88;5052610;28;20092;-65
2022/12/31 09:52:27;;;;;;;4.70;1.08;;;;;;;-143.48;100.00;118439.88;5052600;28;20040;-66
2022/12/31 09:55:11;;;;;;;5.70;1.42;;;;;;;-143.48;100.00;118439.88;5056040;28;20025;-65
2022/12/31 09:57:45;;;;;;;8.65;1.80;;;;;;;-143.48;100.00;118439.88;5056621;28;20025;-65
2022/12/31 10:00:20;;;;;;;6.43;1.38;;;;;;;-143.48;100.00;118439.88;5056421;28;20040;-64
2022/12/31 10:03:03;;;;;;;9.05;1.63;;;;;;;-143.48;100.00;118439.88;5056243;28;20492;-65
2022/12/31 10:06:05;;;;;;;9.63;4.53;;;;;;;-143.48;100.00;118439.88;5056261;28;20032;-66
2022/12/31 10:09:18;;;;;;;9.25;2.33;;;;;;;-143.48;100.00;118439.88;5056072;28;20025;-65
2022/12/31 10:12:21;;;;;;;5.73;1.80;;;;;;;-143.48;100.00;118439.88;5009949;28;20033;-65
2022/12/31 10:15:12;;;;;;;5.43;1.70;;;;;;;-143.48;100.00;118439.88;5056163;28;20074;-65
2022/12/31 10:18:02;;;;;;;6.72;2.03;;;;;;;-143.48;100.00;118439.88;5056016;28;20029;-65
2022/12/31 10:21:02;;;;;;;9.13;2.08;;;;;;;-143.48;100.00;118439.88;5056080;28;20083;-67
2022/12/31 10:23:59;;;;;;;5.72;2.38;;;;;;;-143.48;100.00;118439.88;5037769;28;20033;-67
2022/12/31 10:26:44;;;;;;;6.85;1.70;;;;;;;-143.48;100.00;118439.88;5054065;28;20028;-66
2022/12/31 10:29:09;;;;;;;6.20;1.98;;;;;;;-143.48;100.00;118439.88;5056022;28;20488;-67
2022/12/31 10:31:34;;;;;;;5.97;1.80;;;;;;;-143.48;100.00;118439.88;5055815;28;20064;-67
2022/12/31 10:34:14;;;;;;;6.32;1.73;;;;;;;-143.48;100.00;118439.88;5055814;28;20473;-68
2022/12/31 10:36:50;;;;;;;5.65;1.70;;;;;;;-143.48;100.00;118439.88;5055638;28;20029;-68
2022/12/31 10:39:46;;;;;;;5.47;1.60;;;;;;;-143.48;100.00;118439.88;5055745;28;20033;-68
2022/12/31 10:42:44;;;;;;;5.30;1.83;;;;;;;-143.48;100.00;118439.88;5055976;28;20077;-70
2022/12/31 10:45:33;;;;;;;6.70;2.00;;;;;;;-143.48;100.00;118439.88;5001433;28;20042;-69
2022/12/31 10:48:22;;;;;;;5.63;2.00;;;;;;;-143.48;100.00;118439.88;5037758;28;20031;-69
2022/12/31 10:51:45;;;;;;;6.18;2.20;;;;;;;-143.48;100.00;118439.88;5056057;28;20021;-70
2022/12/31 10:54:49;;;;;;;7.90;2.10;;;;;;;-143.48;100.00;118439.88;4994015;28;20034;-68
2022/12/31 10:57:52;;;;;;;4.75;2.00;;;;;;;-143.48;100.00;118439.88;4994045;28;20026;-68
2022/12/31 11:00:18;;;;;;;7.15;2.20;;;;;;;-143.48;100.00;118439.88;5055339;28;20029;-69
2022/12/31 11:02:53;;;;;;;7.60;2.47;;;;;;;-143.48;100.00;118439.88;5041793;28;20097;-69
2022/12/31 11:05:55;;;;;;;4.97;2.10;;;;;;;-143.48;100.00;118439.88;5057334;28;20068;-68
2022/12/31 11:08:27;;;;;;;7.50;2.40;;;;;;;-143.48;100.00;118439.88;5055073;28;20116;-68
2022/12/31 11:11:16;;;;;;;5.78;1.98;;;;;;;-143.48;100.00;118439.88;5039165;28;20087;-69
2022/12/31 11:14:11;;;;;;;5.63;2.13;;;;;;;-143.48;100.00;118439.88;5054882;28;20021;-69
2022/12/31 11:16:42;;;;;;;4.88;2.10;;;;;;;-143.48;100.00;118439.88;5054704;28;20025;-69
2022/12/31 11:19:16;;;;;;;5.45;2.20;;;;;;;-143.48;100.00;118439.88;5054563;28;20025;-69
2022/12/31 11:22:00;;;;;;;5.65;2.20;;;;;;;-143.48;100.00;118439.88;5054661;28;20431;-69
2022/12/31 11:24:31;;;;;;;5.22;2.15;;;;;;;-143.48;100.00;118439.88;5054645;28;20534;-69
2022/12/31 11:27:19;;;;;;;4.63;2.10;;;;;;;-143.48;100.00;118439.88;5054375;28;20133;-68
2022/12/31 11:30:03;;;;;;;6.25;2.42;;;;;;;-143.48;100.00;118439.88;5035508;28;20118;-68
2022/12/31 11:32:43;;;;;;;9.23;2.33;;;;;;;-143.48;100.00;118439.88;5035622;28;20028;-68
2022/12/31 11:35:25;;;;;;;4.47;1.80;;;;;;;-143.48;100.00;118439.88;5054586;28;20033;-68